Wray, GA (31798)

8:23 PM EST on February 10, 2016 (GMT -0500)
Fitzgerald Municipal | | Change Station
CLOSE
Current Station
Airport
Location: Fitzgerald Muni, Fitzgerald,,
Elevation: 364 ft
Nearby Weather Stations
Active Advisory: Freeze Warning

Elev 364 ft 31.68 °N, 83.27 °W | Updated 8 minutes ago

Clear
Clear
39 °F
Feels Like 37 °F
N
4
Wind Variable Wind from WSW

Today
High -- | Low -- °F
--% Chance of Precip.
Yesterday
High -- | Low -- °F
Precip. -- in
Pressure 30.22 in
Visibility 10.0 miles
Clouds Clear
Windchill 37 °F
Dew Point 18 °F
Humidity 42%
Rainfall 0.00 in
Snow Depth Not available.
7:19 AM 6:14 PM
Waxing Crescent, 8% visible
METAR KFZG 110115Z AUTO 24003KT 10SM CLR 04/M08 A3022 RMK AO2 T00401080
Pressure 30.22 in
Visibility 10.0 miles
Clouds Clear
Windchill 37 °F
Dew Point 18 °F
Humidity 42%
Rainfall 0.00 in
Snow Depth Not available.
7:19 AM 6:14 PM
Waxing Crescent, 8% visible
METAR KFZG 110115Z AUTO 24003KT 10SM CLR 04/M08 A3022 RMK AO2 T00401080

10-Day Weather Forecast

Almanac

Astronomy

Feb. 10, 2016 Rise Set
Actual Time
Civil Twilight
Nautical Twilight
Astronomical Twilight
Moon
Length of Visible Light
Length of Day
Tomorrow will be .
, % of the Moon is Illuminated

Today's Extremes

State Highs State Lows

Community

WunderPhotos

Upload Photos

1,891,963 photos uploaded!

WunderBlog® & News

Nearby

Air Quality

  Air Quality AQ Index Pollutant
Not available.

Snow Depth

Station Depth Elevation

Earthquake Activity

City Distance Mag. Time & Date
Minimum magnitude displayed is 2.5.

Coastal Water Temperatures

Place Temperature

Stations

Nearby Weather Stations

Station Location Temp. Windchill Dew Point Humidity Wind Precip. Elev Updated Type
                   

Watches & Warnings

Freeze Warning
Issued: 1:32 PM CST Feb. 10, 2016 – National Weather Service

... Freeze warning in effect from midnight EST /11 PM CST/ tonight
to 9 am EST /8 am CST/ Thursday...

The National Weather Service in Tallahassee has issued a freeze
warning... which is in effect from midnight EST /11 PM CST/
tonight to 9 am EST /8 am CST/ Thursday. The freeze watch is no
longer in effect.

* Min temperatures... 26 to 32 degrees.

Precautionary/preparedness actions...

A freeze warning means sub-freezing temperatures are imminent or
highly likely. These conditions will kill crops and other
sensitive vegetation.